Time;durP1;ratioP1;P1;durP2;ratioP2;P2;SDS_P1;SDS_P2;PMS_P1;PMS_P2;Temp;Humidity;BMP_temperature;BMP_pressure;BME280_temperature;BME280_humidity;BME280_pressure;Samples;Min_cycle;Max_cycle;Signal;HPM_P1;HPM_P2
2022/12/21 00:01:42;;;;;;;;;;;;;;;15.70;50.53;100746.22;7250730;19;154884;-58
2022/12/21 00:04:14;;;;;;;;;;;;;;;15.69;50.81;100738.13;7250451;19;154205;-57
2022/12/21 00:06:41;;;;;;;;;;;;;;;15.68;50.60;100734.50;7250263;19;154838;-57
2022/12/21 00:09:10;;;;;;;;;;;;;;;15.68;50.49;100728.09;7248090;19;153738;-57
2022/12/21 00:11:37;;;;;;;;;;;;;;;15.67;50.59;100732.81;7246790;19;155023;-57
2022/12/21 00:14:04;;;;;;;;;;;;;;;15.68;50.52;100730.88;7249956;19;153701;-57
2022/12/21 00:16:33;;;;;;;;;;;;;;;15.67;50.71;100724.47;7250294;19;152956;-57
2022/12/21 00:19:01;;;;;;;;;;;;;;;15.68;50.65;100722.53;7258269;19;153552;-57
2022/12/21 00:21:29;;;;;;;;;;;;;;;15.68;50.36;100722.53;7246766;19;156552;-57
2022/12/21 00:23:58;;;;;;;;;;;;;;;15.67;50.59;100718.09;7249202;19;153589;-57
2022/12/21 00:26:26;;;;;;;;;;;;;;;15.67;50.75;100718.09;7249663;19;152271;-57
2022/12/21 00:28:53;;;;;;;;;;;;;;;15.67;50.51;100716.13;7249571;19;153820;-57
2022/12/21 00:31:23;;;;;;;;;;;;;;;15.66;50.54;100703.34;7249218;19;153711;-57
2022/12/21 00:33:51;;;;;;;;;;;;;;;15.66;50.47;100706.13;7251855;19;153505;-57
2022/12/21 00:36:18;;;;;;;;;;;;;;;15.66;50.54;100708.91;7246524;19;154348;-57
2022/12/21 00:38:47;;;;;;;;;;;;;;;15.66;50.66;100700.53;7247450;19;153982;-57
2022/12/21 00:41:15;;;;;;;;;;;;;;;15.66;50.52;100696.94;7257329;19;153516;-57
2022/12/21 00:43:42;;;;;;;;;;;;;;;15.66;50.55;100688.56;7248261;19;153913;-57
2022/12/21 00:46:12;;;;;;;;;;;;;;;15.67;50.57;100690.25;7251202;19;153101;-57
2022/12/21 00:48:39;;;;;;;;;;;;;;;15.65;50.35;100686.91;7247571;19;154137;-57
2022/12/21 00:51:08;;;;;;;;;;;;;;;15.66;50.26;100674.66;7246996;19;153407;-57
2022/12/21 00:53:36;;;;;;;;;;;;;;;15.66;50.45;100671.88;7245404;19;154732;-57
2022/12/21 00:56:04;;;;;;;;;;;;;;;15.65;50.61;100659.88;7250477;19;152650;-57
2022/12/21 00:58:30;;;;;;;;;;;;;;;15.65;50.26;100653.47;7249099;19;153531;-57
2022/12/21 01:01:02;;;;;;;;;;;;;;;15.65;50.23;100650.69;7248206;19;152803;-57
2022/12/21 01:03:29;;;;;;;;;;;;;;;15.64;50.43;100654.59;7254276;19;154008;-57
2022/12/21 01:05:56;;;;;;;;;;;;;;;15.65;50.25;100661.84;7247356;19;154694;-57
2022/12/21 01:08:24;;;;;;;;;;;;;;;15.65;50.70;100661.84;7247171;19;153532;-57
2022/12/21 01:10:54;;;;;;;;;;;;;;;15.64;50.61;100660.16;7250812;19;155453;-57
2022/12/21 01:13:21;;;;;;;;;;;;;;;15.63;50.45;100652.91;7250096;19;153273;-57
2022/12/21 01:15:48;;;;;;;;;;;;;;;15.63;50.27;100648.19;7249453;19;152743;-57
2022/12/21 01:18:15;;;;;;;;;;;;;;;15.64;50.36;100649.03;7248684;19;155694;-57
2022/12/21 01:20:45;;;;;;;;;;;;;;;15.64;50.40;100649.03;7248651;19;154073;-57
2022/12/21 01:23:12;;;;;;;;;;;;;;;15.62;50.67;100642.91;7251650;19;152505;-57
2022/12/21 01:25:41;;;;;;;;;;;;;;;15.63;50.36;100637.03;7261268;19;154386;-57
2022/12/21 01:28:08;;;;;;;;;;;;;;;15.63;50.45;100636.22;7257807;19;153656;-57
2022/12/21 01:30:35;;;;;;;;;;;;;;;15.63;50.48;100639.81;7254865;19;153419;-57
2022/12/21 01:33:02;;;;;;;;;;;;;;;15.63;50.47;100642.63;7255203;19;151821;-57
2022/12/21 01:35:29;;;;;;;;;;;;;;;15.63;50.40;100647.34;7251884;19;154411;-57
2022/12/21 01:37:56;;;;;;;;;;;;;;;15.63;50.35;100650.13;7251273;19;154653;-57
2022/12/21 01:40:23;;;;;;;;;;;;;;;15.62;50.12;100640.97;7255596;19;152930;-57
2022/12/21 01:42:50;;;;;;;;;;;;;;;15.62;50.31;100643.75;7256482;19;153722;-57
2022/12/21 01:45:18;;;;;;;;;;;;;;;15.63;50.29;100642.63;7261745;19;154222;-57
2022/12/21 01:47:49;;;;;;;;;;;;;;;15.62;50.57;100645.69;7256061;19;153354;-57
2022/12/21 01:50:19;;;;;;;;;;;;;;;15.62;50.36;100635.41;7252536;19;156153;-57
2022/12/21 01:52:46;;;;;;;;;;;;;;;15.62;50.58;100643.75;7257056;19;154871;-57
2022/12/21 01:55:13;;;;;;;;;;;;;;;15.61;50.09;100653.22;7253274;19;153659;-57
2022/12/21 01:57:40;;;;;;;;;;;;;;;15.61;50.25;100641.25;7255057;19;153968;-57
2022/12/21 02:02:41;;;;;;;;;;;;;;;15.60;50.18;100645.13;7256684;19;153771;-57
2022/12/21 02:05:21;;;;;;;;;;;;;;;15.60;50.43;100636.78;7253398;19;154289;-57
2022/12/21 02:07:49;;;;;;;;;;;;;;;15.61;50.38;100632.88;7260345;19;153020;-57
2022/12/21 02:10:16;;;;;;;;;;;;;;;15.60;50.33;100640.41;7254746;19;153556;-57
2022/12/21 02:12:43;;;;;;;;;;;;;;;15.61;50.32;100638.47;7255581;19;153167;-57
2022/12/21 02:15:10;;;;;;;;;;;;;;;15.61;50.42;100641.25;7255050;19;154264;-57
2022/12/21 02:17:38;;;;;;;;;;;;;;;15.62;50.34;100642.91;7254025;19;154783;-57
2022/12/21 02:20:08;;;;;;;;;;;;;;;15.60;50.13;100637.63;7244653;19;153320;-57
2022/12/21 02:22:35;;;;;;;;;;;;;;;15.60;50.59;100643.19;7249542;19;153108;-57
2022/12/21 02:25:02;;;;;;;;;;;;;;;15.59;50.55;100641.50;7248607;19;153562;-57
2022/12/21 02:27:30;;;;;;;;;;;;;;;15.60;50.57;100628.44;7249599;19;154172;-57
2022/12/21 02:30:00;;;;;;;;;;;;;;;15.59;50.43;100633.16;7256752;19;154102;-57
2022/12/21 02:32:30;;;;;;;;;;;;;;;15.60;50.18;100628.44;7250483;19;153724;-57
2022/12/21 02:35:03;;;;;;;;;;;;;;;15.60;50.64;100629.25;7249003;19;154052;-57
2022/12/21 02:37:34;;;;;;;;;;;;;;;15.58;50.62;100623.13;7253298;19;153281;-57
2022/12/21 02:40:02;;;;;;;;;;;;;;;15.58;50.41;100629.53;7250504;19;153540;-57
2022/12/21 02:45:08;;;;;;;;;;;;;;;15.58;50.40;100618.41;7251733;19;153482;-57
2022/12/21 02:47:41;;;;;;;;;;;;;;;15.57;50.18;100627.91;7252115;19;151910;-57
2022/12/21 02:50:11;;;;;;;;;;;;;;;15.57;50.38;100627.91;7249951;19;153144;-57
2022/12/21 02:52:41;;;;;;;;;;;;;;;15.58;50.50;100626.75;7256759;19;155971;-57
2022/12/21 02:55:10;;;;;;;;;;;;;;;15.58;50.19;100625.91;7250650;19;154195;-57
2022/12/21 02:57:38;;;;;;;;;;;;;;;15.58;50.21;100632.31;7249779;19;154037;-57
2022/12/21 03:00:08;;;;;;;;;;;;;;;15.59;50.48;100630.38;7250474;19;152710;-57
2022/12/21 03:02:46;;;;;;;;;;;;;;;15.58;50.49;100632.31;7254655;19;154233;-57
2022/12/21 03:05:15;;;;;;;;;;;;;;;15.58;50.28;100628.69;7249337;19;153690;-57
2022/12/21 03:07:45;;;;;;;;;;;;;;;15.57;50.41;100639.03;7248591;19;152843;-57
2022/12/21 03:10:15;;;;;;;;;;;;;;;15.57;50.43;100638.19;7253897;19;154703;-57
2022/12/21 03:12:45;;;;;;;;;;;;;;;15.57;50.37;100627.91;7253312;19;153997;-57
2022/12/21 03:15:18;;;;;;;;;;;;;;;15.56;50.63;100626.22;7259451;19;154944;-57
2022/12/21 03:17:51;;;;;;;;;;;;;;;15.57;50.68;100633.47;7252665;19;153370;-57
2022/12/21 03:20:19;;;;;;;;;;;;;;;15.58;50.41;100625.91;7251293;19;156116;-57
2022/12/21 03:22:49;;;;;;;;;;;;;;;15.56;50.38;100623.44;7251785;19;154283;-57
2022/12/21 03:25:19;;;;;;;;;;;;;;;15.56;50.37;100620.66;7249492;19;155889;-57
2022/12/21 03:27:48;;;;;;;;;;;;;;;15.56;50.41;100614.25;7252980;19;153402;-57
2022/12/21 03:30:17;;;;;;;;;;;;;;;15.56;50.41;100612.31;7251195;19;154121;-57
2022/12/21 03:32:47;;;;;;;;;;;;;;;15.56;50.41;100608.69;7249910;19;153522;-56
2022/12/21 03:35:21;;;;;;;;;;;;;;;15.58;50.36;100595.28;7255399;19;154340;-57
2022/12/21 03:37:49;;;;;;;;;;;;;;;15.56;50.20;100606.72;7250359;19;154841;-57
2022/12/21 03:40:19;;;;;;;;;;;;;;;15.55;50.37;100605.06;7234349;19;154693;-57
2022/12/21 03:42:50;;;;;;;;;;;;;;;15.57;50.35;100599.22;7237339;19;153880;-57
2022/12/21 03:45:20;;;;;;;;;;;;;;;15.55;50.60;100599.50;7246569;19;154516;-57
2022/12/21 03:47:52;;;;;;;;;;;;;;;15.55;50.49;100598.66;7250815;19;155723;-57
2022/12/21 03:50:21;;;;;;;;;;;;;;;15.55;50.36;100605.06;7246747;19;153964;-57
2022/12/21 03:52:51;;;;;;;;;;;;;;;15.55;50.49;100601.44;7248421;19;153977;-57
2022/12/21 03:55:21;;;;;;;;;;;;;;;15.56;50.47;100591.97;7248420;19;153419;-57
2022/12/21 03:57:49;;;;;;;;;;;;;;;15.54;50.50;100595.03;7258959;19;153547;-57
2022/12/21 04:00:16;;;;;;;;;;;;;;;15.55;50.33;100602.28;7252465;19;154298;-57
2022/12/21 04:02:46;;;;;;;;;;;;;;;15.55;50.14;100601.44;7250905;19;153877;-56
2022/12/21 04:05:17;;;;;;;;;;;;;;;15.55;50.29;100601.44;7248549;19;154020;-56
2022/12/21 04:07:45;;;;;;;;;;;;;;;15.54;50.47;100595.03;7247382;19;153014;-56
2022/12/21 04:10:14;;;;;;;;;;;;;;;15.53;50.41;100606.47;7252094;19;153746;-56
2022/12/21 04:12:41;;;;;;;;;;;;;;;15.53;50.58;100604.53;7247703;19;154824;-56
2022/12/21 04:15:08;;;;;;;;;;;;;;;15.54;50.31;100595.03;7229730;19;152656;-56
2022/12/21 04:17:35;;;;;;;;;;;;;;;15.53;50.48;100587.81;7245096;19;154285;-56
2022/12/21 04:20:03;;;;;;;;;;;;;;;15.53;50.22;100593.38;7253636;19;154490;-56
2022/12/21 04:30:03;;;;;;;;;;;;;;;15.52;50.55;100574.19;7251983;19;154228;-56
2022/12/21 04:32:29;;;;;;;;;;;;;;;15.52;50.37;100580.56;7246731;19;153240;-56
2022/12/21 04:34:56;;;;;;;;;;;;;;;15.52;50.26;100571.38;7248288;19;153663;-56
2022/12/21 04:39:53;;;;;;;;;;;;;;;15.52;50.40;100569.44;7250385;19;154878;-56
2022/12/21 04:42:20;;;;;;;;;;;;;;;15.52;50.62;100568.59;7258694;19;153957;-56
2022/12/21 04:44:47;;;;;;;;;;;;;;;15.52;50.61;100558.31;7248220;19;155536;-56
2022/12/21 04:47:14;;;;;;;;;;;;;;;15.52;50.64;100546.34;7249859;19;152758;-56
2022/12/21 04:49:40;;;;;;;;;;;;;;;15.55;50.49;100548.53;7250431;19;156139;-56
2022/12/21 04:52:07;;;;;;;;;;;;;;;15.55;50.47;100537.41;7241117;19;154784;-56
2022/12/21 04:54:35;;;;;;;;;;;;;;;15.56;50.46;100531.56;7248463;19;153617;-56
2022/12/21 04:57:01;;;;;;;;;;;;;;;15.61;50.47;100532.66;7247131;19;153372;-56
2022/12/21 04:59:28;;;;;;;;;;;;;;;15.65;51.07;100517.88;7255723;19;154944;-56
2022/12/21 05:01:55;;;;;;;;;;;;;;;15.70;50.87;100522.59;7255612;19;153427;-56
2022/12/21 05:04:22;;;;;;;;;;;;;;;15.76;50.87;100527.81;7262102;19;153156;-56
2022/12/21 05:06:49;;;;;;;;;;;;;;;15.81;50.92;100526.97;7255017;19;153233;-57
2022/12/21 05:09:16;;;;;;;;;;;;;;;15.85;51.13;100533.66;7252271;19;155491;-56
2022/12/21 05:11:42;;;;;;;;;;;;;;;15.89;51.39;100524.44;7254326;19;153777;-56
2022/12/21 05:14:10;;;;;;;;;;;;;;;15.93;51.42;100519.94;7257845;19;154017;-56
2022/12/21 05:16:38;;;;;;;;;;;;;;;15.97;51.45;100526.59;7230639;19;154149;-56
2022/12/21 05:19:05;;;;;;;;;;;;;;;16.01;51.26;100519.34;7250194;19;155499;-56
2022/12/21 05:21:32;;;;;;;;;;;;;;;16.06;51.19;100520.41;7252873;19;152520;-56
2022/12/21 05:23:59;;;;;;;;;;;;;;;16.11;51.20;100528.75;7253247;19;154540;-56
2022/12/21 05:26:26;;;;;;;;;;;;;;;16.15;51.13;100524.25;7255913;19;155710;-56
2022/12/21 05:28:52;;;;;;;;;;;;;;;16.17;51.14;100520.03;7249122;19;153843;-57
2022/12/21 05:31:19;;;;;;;;;;;;;;;16.22;51.02;100516.38;7251387;19;155169;-56
2022/12/21 05:33:46;;;;;;;;;;;;;;;16.25;50.72;100519.44;7255643;19;154446;-57
2022/12/21 05:36:14;;;;;;;;;;;;;;;16.28;50.84;100516.06;7252331;19;153654;-57
2022/12/21 05:38:41;;;;;;;;;;;;;;;16.32;50.46;100516.31;7252616;19;153779;-56
2022/12/21 05:41:09;;;;;;;;;;;;;;;16.34;50.52;100514.09;7256947;19;153612;-56
2022/12/21 05:43:36;;;;;;;;;;;;;;;16.37;50.21;100516.28;7254254;19;155259;-57
2022/12/21 05:46:04;;;;;;;;;;;;;;;16.40;50.38;100521.25;7262281;19;154556;-56
2022/12/21 05:48:31;;;;;;;;;;;;;;;16.40;50.43;100516.53;7254240;19;154136;-57
2022/12/21 05:50:59;;;;;;;;;;;;;;;16.43;50.10;100515.97;7254106;19;155971;-56
2022/12/21 05:53:25;;;;;;;;;;;;;;;16.46;50.11;100523.72;7255875;19;152329;-56
2022/12/21 05:55:52;;;;;;;;;;;;;;;16.49;50.25;100521.50;7254544;19;153195;-56
2022/12/21 05:58:19;;;;;;;;;;;;;;;16.51;50.06;100517.28;7253115;19;155709;-56
2022/12/21 06:00:46;;;;;;;;;;;;;;;16.52;49.90;100507.78;7256012;19;154103;-56
2022/12/21 06:03:13;;;;;;;;;;;;;;;16.54;49.71;100516.69;7255225;19;154098;-56
2022/12/21 06:05:40;;;;;;;;;;;;;;;16.55;49.64;100514.72;7252347;19;154003;-56
2022/12/21 06:08:07;;;;;;;;;;;;;;;16.57;49.56;100509.72;7258637;19;153598;-56
2022/12/21 06:10:36;;;;;;;;;;;;;;;16.58;49.45;100509.44;7254225;19;154015;-56
2022/12/21 06:13:04;;;;;;;;;;;;;;;16.60;49.58;100507.19;7253606;19;155069;-56
2022/12/21 06:15:30;;;;;;;;;;;;;;;16.61;49.60;100491.28;7253057;19;153664;-56
2022/12/21 06:17:58;;;;;;;;;;;;;;;16.61;49.53;100489.34;7253415;19;154716;-56
2022/12/21 06:20:30;;;;;;;;;;;;;;;16.63;49.64;100489.03;7253902;19;153921;-56
2022/12/21 06:22:57;;;;;;;;;;;;;;;16.63;49.23;100486.25;7251125;19;152975;-56
2022/12/21 06:25:24;;;;;;;;;;;;;;;16.63;49.42;100487.06;7253210;19;155718;-56
2022/12/21 06:27:51;;;;;;;;;;;;;;;16.64;49.61;100485.94;7253518;19;152905;-57
2022/12/21 06:30:18;;;;;;;;;;;;;;;16.65;49.50;100489.56;7261114;19;153628;-57
2022/12/21 06:32:45;;;;;;;;;;;;;;;16.65;49.17;100490.41;7253554;19;153734;-57
2022/12/21 06:35:12;;;;;;;;;;;;;;;16.64;49.47;100494.31;7253531;19;153571;-57
2022/12/21 06:37:38;;;;;;;;;;;;;;;16.65;49.47;100487.63;7246453;19;153960;-56
2022/12/21 06:40:06;;;;;;;;;;;;;;;16.66;49.50;100489.28;7253243;19;153530;-56
2022/12/21 06:42:33;;;;;;;;;;;;;;;16.65;49.21;100496.00;7255168;19;154366;-56
2022/12/21 06:45:01;;;;;;;;;;;;;;;16.66;49.24;100494.03;7250076;19;155606;-57
2022/12/21 06:47:27;;;;;;;;;;;;;;;16.67;49.25;100501.28;7253808;19;152666;-56
2022/12/21 06:49:54;;;;;;;;;;;;;;;16.68;49.05;100502.94;7252993;19;153025;-56
2022/12/21 06:52:21;;;;;;;;;;;;;;;16.67;49.08;100499.31;7259454;19;154802;-56
2022/12/21 06:54:48;;;;;;;;;;;;;;;16.67;49.28;100501.28;7252878;19;154361;-56
2022/12/21 06:57:15;;;;;;;;;;;;;;;16.67;49.29;100501.28;7251083;19;152797;-56
2022/12/21 06:59:42;;;;;;;;;;;;;;;16.67;49.14;100501.28;7252910;19;153043;-57
2022/12/21 07:02:10;;;;;;;;;;;;;;;16.67;49.00;100506.88;7252795;19;154089;-56
2022/12/21 07:04:37;;;;;;;;;;;;;;;16.67;49.29;100495.72;7249571;19;154643;-56
2022/12/21 07:07:04;;;;;;;;;;;;;;;16.67;49.31;100504.06;7248542;19;154103;-56
2022/12/21 07:09:30;;;;;;;;;;;;;;;16.67;49.08;100501.28;7249594;19;154405;-57
2022/12/21 07:11:57;;;;;;;;;;;;;;;16.65;49.09;100489.56;7249613;19;152807;-57
2022/12/21 07:14:24;;;;;;;;;;;;;;;16.65;49.20;100496.00;7260837;19;154188;-57
2022/12/21 07:16:51;;;;;;;;;;;;;;;16.66;49.22;100499.63;7251009;19;153610;-57
2022/12/21 07:19:18;;;;;;;;;;;;;;;16.66;49.17;100507.97;7252883;19;153595;-57
2022/12/21 07:21:45;;;;;;;;;;;;;;;16.65;49.02;100501.56;7248831;19;153814;-56
2022/12/21 07:24:12;;;;;;;;;;;;;;;16.64;49.21;100493.50;7252689;19;154845;-57
2022/12/21 07:26:39;;;;;;;;;;;;;;;16.63;49.28;100495.44;7254385;19;154139;-57
2022/12/21 07:29:06;;;;;;;;;;;;;;;16.63;49.03;100491.81;7252651;19;153754;-56
2022/12/21 07:31:33;;;;;;;;;;;;;;;16.63;49.10;100494.59;7252135;19;154097;-57
2022/12/21 07:34:00;;;;;;;;;;;;;;;16.62;49.23;100491.00;7252922;19;152420;-56
2022/12/21 07:36:26;;;;;;;;;;;;;;;16.61;49.01;100488.50;7255417;19;154144;-56
2022/12/21 07:38:54;;;;;;;;;;;;;;;16.61;49.09;100488.50;7252047;19;153792;-57
2022/12/21 07:41:21;;;;;;;;;;;;;;;16.60;49.36;100484.03;7252444;19;154128;-57
2022/12/21 07:43:48;;;;;;;;;;;;;;;16.58;49.48;100492.69;7248684;19;156083;-56
2022/12/21 07:46:16;;;;;;;;;;;;;;;16.60;49.14;100498.00;7250311;19;153323;-56
2022/12/21 07:48:43;;;;;;;;;;;;;;;16.58;49.42;100497.47;7250647;19;153188;-58
2022/12/21 07:51:10;;;;;;;;;;;;;;;16.58;49.16;100503.03;7248106;19;154152;-58
2022/12/21 07:53:37;;;;;;;;;;;;;;;16.57;49.19;100498.56;7250899;19;154732;-58
2022/12/21 07:56:06;;;;;;;;;;;;;;;16.57;49.60;100495.75;7256920;19;154102;-58
2022/12/21 07:58:34;;;;;;;;;;;;;;;16.56;49.21;100499.66;7253199;19;153295;-58
2022/12/21 08:01:03;;;;;;;;;;;;;;;16.54;49.21;100505.53;7250651;19;155205;-58
2022/12/21 08:03:32;;;;;;;;;;;;;;;16.54;49.23;100496.34;7251069;19;153108;-58
2022/12/21 08:05:59;;;;;;;;;;;;;;;16.53;49.36;100494.69;7248646;19;152948;-58
2022/12/21 08:08:26;;;;;;;;;;;;;;;16.53;49.56;100501.09;7249228;19;153771;-58
2022/12/21 08:10:52;;;;;;;;;;;;;;;16.52;49.43;100493.03;7247293;19;154305;-58
2022/12/21 08:13:20;;;;;;;;;;;;;;;16.51;49.69;100485.78;7250661;19;153132;-58
2022/12/21 08:15:47;;;;;;;;;;;;;;;16.51;49.51;100481.03;7248665;19;153827;-58
2022/12/21 08:18:14;;;;;;;;;;;;;;;16.50;49.65;100478.53;7255706;19;156154;-58
2022/12/21 08:20:43;;;;;;;;;;;;;;;16.49;49.66;100494.41;7250303;19;155605;-58
2022/12/21 08:23:10;;;;;;;;;;;;;;;16.49;49.73;100491.63;7247369;19;153750;-58
2022/12/21 08:25:45;;;;;;;;;;;;;;;16.48;49.86;100492.78;7250978;19;154026;-58
2022/12/21 08:28:12;;;;;;;;;;;;;;;16.47;49.75;100488.31;7251012;19;153356;-58
2022/12/21 08:30:41;;;;;;;;;;;;;;;16.48;49.58;100490.00;7251222;19;153967;-58
2022/12/21 08:33:09;;;;;;;;;;;;;;;16.48;49.85;100489.16;7248635;19;155330;-58
2022/12/21 08:35:36;;;;;;;;;;;;;;;16.47;49.47;100477.16;7250322;19;155603;-58
2022/12/21 08:38:03;;;;;;;;;;;;;;;16.46;49.54;100484.69;7244928;19;153624;-58
2022/12/21 08:40:30;;;;;;;;;;;;;;;16.44;49.91;100488.91;7258110;19;154437;-58
2022/12/21 08:42:57;;;;;;;;;;;;;;;16.44;49.56;100486.94;7250325;19;154375;-58
2022/12/21 08:45:24;;;;;;;;;;;;;;;16.44;49.79;100486.94;7250204;19;154204;-58
2022/12/21 08:47:51;;;;;;;;;;;;;;;16.44;49.87;100497.28;7249085;19;152950;-57
2022/12/21 08:50:18;;;;;;;;;;;;;;;16.42;49.72;100491.97;7247641;19;154393;-57
2022/12/21 08:52:45;;;;;;;;;;;;;;;16.42;49.87;100485.56;7246750;19;155388;-58
2022/12/21 08:55:12;;;;;;;;;;;;;;;16.41;49.79;100487.53;7249787;19;152633;-57
2022/12/21 08:57:39;;;;;;;;;;;;;;;16.41;49.91;100483.91;7248430;19;154744;-58
2022/12/21 09:02:37;;;;;;;;;;;;;;;16.40;50.04;100485.03;7256983;19;153401;-57
2022/12/21 09:05:04;;;;;;;;;;;;;;;16.40;49.90;100485.03;7248766;19;153120;-58
2022/12/21 09:07:32;;;;;;;;;;;;;;;16.39;50.17;100484.22;7245708;19;152672;-57
2022/12/21 09:09:59;;;;;;;;;;;;;;;16.39;50.10;100480.59;7246653;19;153729;-57
2022/12/21 09:12:27;;;;;;;;;;;;;;;16.39;49.87;100478.63;7250492;19;153606;-58
2022/12/21 09:14:54;;;;;;;;;;;;;;;16.37;50.10;100466.94;7249831;19;155269;-57
2022/12/21 09:17:21;;;;;;;;;;;;;;;16.36;50.16;100465.25;7244847;19;154564;-57
2022/12/21 09:19:54;;;;;;;;;;;;;;;16.35;49.86;100460.81;7248743;19;153706;-57
2022/12/21 09:22:23;;;;;;;;;;;;;;;16.35;49.95;100460.81;7247969;19;155153;-57
2022/12/21 09:24:50;;;;;;;;;;;;;;;16.35;50.12;100458.00;7255443;19;154081;-58
2022/12/21 09:27:17;;;;;;;;;;;;;;;16.35;50.01;100452.44;7249778;19;153367;-57
2022/12/21 09:29:44;;;;;;;;;;;;;;;16.34;50.18;100450.81;7248568;19;155280;-57
2022/12/21 09:32:12;;;;;;;;;;;;;;;16.34;49.87;100450.81;7249159;19;153352;-58
2022/12/21 09:34:39;;;;;;;;;;;;;;;16.34;50.19;100444.41;7247855;19;153920;-57
2022/12/21 09:37:06;;;;;;;;;;;;;;;16.33;49.88;100456.66;7242654;19;153269;-57
2022/12/21 09:39:50;;;;;;;;;;;;;;;16.33;50.03;100454.72;7247983;19;154441;-57
2022/12/21 09:42:20;;;;;;;;;;;;;;;16.32;50.24;100453.03;7249032;19;153073;-57
2022/12/21 09:44:50;;;;;;;;;;;;;;;16.32;50.20;100449.41;7252160;19;153353;-57
2022/12/21 09:47:19;;;;;;;;;;;;;;;16.32;50.33;100449.41;7263815;19;152016;-57
2022/12/21 09:49:50;;;;;;;;;;;;;;;16.31;50.49;100451.38;7254735;19;153952;-57
2022/12/21 09:52:21;;;;;;;;;;;;;;;16.31;50.22;100448.56;7253484;19;154030;-57
2022/12/21 09:54:53;;;;;;;;;;;;;;;16.31;50.40;100444.97;7255479;19;153994;-57
2022/12/21 09:57:20;;;;;;;;;;;;;;;16.31;50.12;100451.38;7252228;19;153505;-57
2022/12/21 09:59:47;;;;;;;;;;;;;;;16.31;50.31;100456.94;7255378;19;152796;-58
2022/12/21 10:02:22;;;;;;;;;;;;;;;16.31;50.45;100450.53;7255611;19;153270;-57
2022/12/21 10:04:53;;;;;;;;;;;;;;;16.30;50.39;100458.09;7252435;19;154089;-58
2022/12/21 10:07:38;;;;;;;;;;;;;;;16.30;50.72;100451.69;7260870;19;153602;-57
2022/12/21 10:10:08;;;;;;;;;;;;;;;16.28;50.32;100454.75;7254957;19;154857;-57
2022/12/21 10:12:38;;;;;;;;;;;;;;;16.28;50.38;100451.97;7256211;19;155509;-57
2022/12/21 10:15:08;;;;;;;;;;;;;;;16.29;50.60;100452.78;7253744;19;153396;-57
2022/12/21 10:17:35;;;;;;;;;;;;;;;16.28;50.42;100449.19;7252182;19;154421;-57
2022/12/21 10:20:08;;;;;;;;;;;;;;;16.28;50.56;100442.75;7251194;19;153352;-57
2022/12/21 10:22:38;;;;;;;;;;;;;;;16.27;50.61;100441.09;7253313;19;155321;-58
2022/12/21 10:25:13;;;;;;;;;;;;;;;16.27;50.95;100441.09;7252822;19;155866;-57
2022/12/21 10:27:43;;;;;;;;;;;;;;;16.27;50.73;100441.94;7255861;19;153533;-57
2022/12/21 10:30:12;;;;;;;;;;;;;;;16.26;50.91;100437.47;7260710;19;154376;-57
2022/12/21 10:32:40;;;;;;;;;;;;;;;16.27;51.07;100441.94;7255630;19;153321;-57
2022/12/21 10:35:10;;;;;;;;;;;;;;;16.26;50.67;100434.69;7253048;19;153309;-57
2022/12/21 10:37:37;;;;;;;;;;;;;;;16.26;50.94;100429.09;7252725;19;154533;-57
2022/12/21 10:40:05;;;;;;;;;;;;;;;16.24;50.83;100423.00;7254764;19;154889;-58
2022/12/21 10:42:32;;;;;;;;;;;;;;;16.25;50.85;100421.06;7255286;19;154484;-57
2022/12/21 10:44:59;;;;;;;;;;;;;;;16.25;50.82;100426.63;7249243;19;155526;-58
2022/12/21 10:47:26;;;;;;;;;;;;;;;16.23;51.18;100418.56;7251882;19;153909;-57
2022/12/21 10:49:55;;;;;;;;;;;;;;;16.24;51.17;100419.38;7252240;19;153818;-57
2022/12/21 10:52:25;;;;;;;;;;;;;;;16.24;50.88;100416.59;7257979;19;155145;-58
2022/12/21 10:54:51;;;;;;;;;;;;;;;16.23;51.10;100418.56;7250277;19;153726;-57
2022/12/21 10:57:24;;;;;;;;;;;;;;;16.22;50.96;100402.94;7251867;19;154009;-58
2022/12/21 10:59:51;;;;;;;;;;;;;;;16.21;50.83;100398.53;7252796;19;153217;-57
2022/12/21 11:02:21;;;;;;;;;;;;;;;16.21;50.89;100392.94;7251713;19;154687;-57
2022/12/21 11:04:48;;;;;;;;;;;;;;;16.21;51.17;100403.25;7252531;19;153563;-57
2022/12/21 11:07:18;;;;;;;;;;;;;;;16.21;51.08;100397.69;7251049;19;154327;-57
2022/12/21 11:10:21;;;;;;;;;;;;;;;16.21;51.07;100408.84;7251757;19;154804;-58
2022/12/21 11:13:10;;;;;;;;;;;;;;;16.20;50.96;100404.38;7251178;19;154992;-57
2022/12/21 11:15:37;;;;;;;;;;;;;;;16.20;51.38;100393.22;7258479;19;153159;-58
2022/12/21 11:18:27;;;;;;;;;;;;;;;16.19;51.23;100391.56;7249415;19;154994;-57
2022/12/21 11:20:54;;;;;;;;;;;;;;;16.17;51.24;100394.63;7250371;19;153083;-57
2022/12/21 11:23:21;;;;;;;;;;;;;;;16.17;51.56;100394.63;7250061;19;154402;-57
2022/12/21 11:25:52;;;;;;;;;;;;;;;16.18;51.12;100387.94;7250299;19;154843;-58
2022/12/21 11:28:20;;;;;;;;;;;;;;;16.17;51.38;100391.84;7253619;19;153077;-57
2022/12/21 11:30:50;;;;;;;;;;;;;;;16.19;51.09;100374.84;7247254;19;153419;-57
2022/12/21 11:33:18;;;;;;;;;;;;;;;16.18;51.25;100382.38;7250994;19;155104;-57
2022/12/21 11:35:48;;;;;;;;;;;;;;;16.20;51.34;100382.09;7251389;19;153335;-57
2022/12/21 11:38:15;;;;;;;;;;;;;;;16.19;51.25;100380.41;7257852;19;153488;-57
2022/12/21 11:40:45;;;;;;;;;;;;;;;16.17;51.36;100372.34;7249475;19;153908;-59
2022/12/21 11:43:15;;;;;;;;;;;;;;;16.16;51.28;100376.28;7252121;19;154365;-57
2022/12/21 11:45:46;;;;;;;;;;;;;;;16.16;51.58;100362.34;7250460;19;153960;-57
2022/12/21 11:48:16;;;;;;;;;;;;;;;16.18;51.43;100375.97;7252327;19;153498;-57
2022/12/21 11:50:46;;;;;;;;;;;;;;;16.15;51.49;100369.03;7253058;19;154868;-57
2022/12/21 11:53:16;;;;;;;;;;;;;;;16.16;51.48;100372.66;7250548;19;154121;-57
2022/12/21 11:55:44;;;;;;;;;;;;;;;16.15;51.82;100363.47;7253304;19;154352;-57
2022/12/21 11:58:19;;;;;;;;;;;;;;;16.15;51.51;100365.41;7250602;19;153276;-57
2022/12/21 12:00:58;;;;;;;;;;;;;;;16.15;51.69;100360.66;7259679;19;154631;-58
2022/12/21 12:03:35;;;;;;;;;;;;;;;16.15;51.66;100349.53;7252986;19;154786;-57
2022/12/21 12:06:03;;;;;;;;;;;;;;;16.14;51.36;100342.28;7244711;19;153517;-58
2022/12/21 12:08:40;;;;;;;;;;;;;;;16.14;51.73;100345.06;7247967;19;155819;-57
2022/12/21 12:11:10;;;;;;;;;;;;;;;16.14;51.52;100347.84;7251756;19;153512;-57
2022/12/21 12:13:37;;;;;;;;;;;;;;;16.14;51.65;100344.22;7248138;19;153973;-57
2022/12/21 12:16:13;;;;;;;;;;;;;;;16.13;51.52;100350.91;7251399;19;153174;-57
2022/12/21 12:18:49;;;;;;;;;;;;;;;16.12;52.02;100349.28;7249559;19;153798;-57
2022/12/21 12:21:17;;;;;;;;;;;;;;;16.12;51.59;100352.91;7254036;19;153889;-58
2022/12/21 12:23:47;;;;;;;;;;;;;;;16.13;51.72;100364.84;7251186;19;156171;-57
2022/12/21 12:26:21;;;;;;;;;;;;;;;16.12;52.00;100364.06;7250149;19;155507;-58
2022/12/21 12:28:48;;;;;;;;;;;;;;;16.11;51.70;100367.97;7252665;19;154407;-57
2022/12/21 12:31:23;;;;;;;;;;;;;;;16.11;52.03;100359.59;7250966;19;153576;-57
2022/12/21 12:33:54;;;;;;;;;;;;;;;16.11;51.94;100353.19;7248786;19;155032;-58
2022/12/21 12:36:25;;;;;;;;;;;;;;;16.11;51.98;100354.03;7247243;19;154473;-58
2022/12/21 12:39:00;;;;;;;;;;;;;;;16.11;52.02;100354.03;7250453;19;153775;-58
2022/12/21 12:41:31;;;;;;;;;;;;;;;16.11;51.56;100353.19;7247175;19;154245;-57
2022/12/21 12:44:03;;;;;;;;;;;;;;;16.10;52.09;100341.22;7256901;19;155007;-57
2022/12/21 12:46:33;;;;;;;;;;;;;;;16.10;52.12;100330.06;7248495;19;154147;-58
2022/12/21 12:49:03;;;;;;;;;;;;;;;16.09;51.64;100333.97;7250384;19;152288;-58
2022/12/21 12:51:31;;;;;;;;;;;;;;;16.10;51.76;100330.06;7246538;19;154081;-57
2022/12/21 12:54:03;;;;;;;;;;;;;;;16.09;52.12;100331.19;7250113;19;154128;-57